Nine Mile Falls, WA (99026)

6:35 AM PST on February 11, 2016 (GMT -0800)
APRSWXNET | | Change Station
CLOSE
Current Station
Personal Weather Station
Location: Nine Mile Falls, WA
Elevation: 1768 ft
Nearby Weather Stations

Elev 1768 ft 47.81 °N, 117.60 °W | Updated 32 minutes ago

Light Freezing Fog
Freezing Fog
33 °F
Feels Like 33 °F
N
0
Wind Variable Wind from SSW
Gusts 2.0 mph

Today
High -- | Low -- °F
--% Chance of Precip.
Yesterday
High -- | Low -- °F
Precip. -- in
Pressure 30.28 in
Visibility 0.2 miles
Clouds
Windchill 33 °F
Dew Point 31 °F
Humidity 94%
Rainfall in
Snow Depth Not available.
7:03 AM 5:06 PM
Waxing Crescent, 12% visible
SPECI KSKA 111433Z AUTO 05002KT 1/4SM R05/1600FT FZFG VV001 00/00 A3028 RMK AO2
Pressure 30.28 in
Visibility 0.2 miles
Clouds
Windchill 33 °F
Dew Point 31 °F
Humidity 94%
Rainfall in
Snow Depth Not available.
7:03 AM 5:06 PM
Waxing Crescent, 12% visible
SPECI KSKA 111433Z AUTO 05002KT 1/4SM R05/1600FT FZFG VV001 00/00 A3028 RMK AO2

10-Day Weather Forecast

Almanac

Astronomy

Feb. 11, 2016 Rise Set
Actual Time
Civil Twilight
Nautical Twilight
Astronomical Twilight
Moon
Length of Visible Light
Length of Day
Tomorrow will be .
, % of the Moon is Illuminated

Today's Extremes

State Highs State Lows

Community

WunderPhotos

Upload Photos

1,892,054 photos uploaded!

WunderBlog® & News

Nearby

Air Quality

  Air Quality AQ Index Pollutant
Not available.

Snow Depth

Station Depth Elevation

Earthquake Activity

City Distance Mag. Time & Date
Minimum magnitude displayed is 2.5.

Coastal Water Temperatures

Place Temperature

Stations

Nearby Weather Stations

Station Location Temp. Windchill Dew Point Humidity Wind Precip. Elev Updated Type
                   

Watches & Warnings

There are currently no watches in effect.